createdAt,value
2016-11-05T00:01:24.578Z,74.33
2016-11-05T00:06:24.532Z,74.33
2016-11-05T00:11:24.470Z,73.94
2016-11-05T00:16:24.414Z,73.94
2016-11-05T00:21:24.358Z,74.23
2016-11-05T00:26:24.310Z,74.43
2016-11-05T00:31:24.251Z,74.23
2016-11-05T00:36:24.192Z,74.77
2016-11-05T00:41:23.834Z,74.29
2016-11-05T00:46:24.085Z,74.58
2016-11-05T00:51:24.025Z,74.58
2016-11-05T00:56:23.969Z,74.48
2016-11-05T01:01:23.609Z,74.48
2016-11-05T01:06:23.858Z,74.68
2016-11-05T01:11:23.799Z,74.77
2016-11-05T01:16:23.743Z,74.68
2016-11-05T01:21:23.684Z,74.48
2016-11-05T01:26:23.631Z,74.58
2016-11-05T01:31:23.568Z,74.68
2016-11-05T01:36:23.514Z,74.64
2016-11-05T01:41:23.462Z,74.77
2016-11-05T01:46:23.403Z,74.73
2016-11-05T01:51:23.340Z,75.5
2016-11-05T01:56:22.982Z,74.64
2016-11-05T02:01:22.926Z,75.12
2016-11-05T02:06:23.176Z,75.02
2016-11-05T02:11:22.810Z,75.21
2016-11-05T02:16:23.058Z,75.12
2016-11-05T02:21:22.997Z,75.21
2016-11-05T02:26:22.935Z,75.02
2016-11-05T02:31:22.880Z,75.21
2016-11-05T02:36:22.820Z,75.4
2016-11-05T02:41:22.455Z,75.21
2016-11-05T02:46:22.699Z,75.31
2016-11-05T02:51:22.644Z,75.31
2016-11-05T02:56:22.584Z,75.5
2016-11-05T03:01:22.524Z,75.31
2016-11-05T03:06:22.463Z,75.79
2016-11-05T03:11:22.405Z,75.31
2016-11-05T03:16:22.346Z,75.89
2016-11-05T03:21:22.286Z,75.89
2016-11-05T03:26:22.226Z,75.7
2016-11-05T03:31:21.898Z,75.56
2016-11-05T03:36:22.116Z,75.79
2016-11-05T03:41:22.046Z,75.89
2016-11-05T03:46:21.688Z,75.89
2016-11-05T03:51:21.929Z,75.89
2016-11-05T03:56:21.871Z,75.85
2016-11-05T04:01:21.813Z,75.85
2016-11-05T04:06:21.754Z,75.65
2016-11-05T04:11:21.690Z,76.52
2016-11-05T04:16:21.335Z,76.62
2016-11-05T04:21:21.304Z,75.75
2016-11-05T04:26:21.557Z,76.42
2016-11-05T04:31:21.157Z,76.42
2016-11-05T04:36:21.399Z,76.62
2016-11-05T04:41:21.337Z,76.62
2016-11-05T04:46:20.977Z,76.42
2016-11-05T04:51:21.219Z,76.42
2016-11-05T04:56:20.854Z,76.32
2016-11-05T05:01:20.795Z,76.42
2016-11-05T05:06:21.043Z,76.62
2016-11-05T05:11:20.981Z,76.71
2016-11-05T05:16:20.619Z,76.81
2016-11-05T05:21:20.857Z,76.9
2016-11-05T05:26:20.799Z,77.38
2016-11-05T05:31:20.737Z,77.38
2016-11-05T05:36:20.676Z,77.29
2016-11-05T05:41:20.617Z,77
2016-11-05T05:46:20.253Z,77.09
2016-11-05T05:51:20.193Z,77.09
2016-11-05T05:56:20.445Z,77.19
2016-11-05T06:01:20.381Z,77.25
2016-11-05T06:06:20.315Z,77.67
2016-11-05T06:11:20.268Z,77.38
2016-11-05T06:16:20.199Z,77.48
2016-11-05T06:21:19.833Z,77.34
2016-11-05T06:26:20.082Z,77.29
2016-11-05T06:31:20.016Z,77.95
2016-11-05T06:36:19.960Z,77.38
2016-11-05T06:41:19.898Z,77.48
2016-11-05T06:46:19.833Z,77.63
2016-11-05T06:51:19.473Z,77.63
2016-11-05T06:56:19.406Z,77.34
2016-11-05T07:01:19.648Z,77.34
2016-11-05T07:06:19.589Z,77.63
2016-11-05T07:11:19.527Z,76.62
2016-11-05T07:16:19.163Z,76.42
2016-11-05T07:21:19.408Z,76.52
2016-11-05T07:26:19.346Z,76.17
2016-11-05T07:31:19.282Z,75.21
2016-11-05T07:36:19.226Z,75.15
2016-11-05T07:41:18.860Z,74.48
2016-11-05T07:46:19.108Z,73.72
2016-11-05T07:51:19.054Z,73.94
2016-11-05T07:56:18.992Z,73.75
2016-11-05T08:01:18.940Z,73.6
2016-11-05T08:06:18.890Z,73.41
2016-11-05T08:11:18.827Z,73.5
2016-11-05T08:16:18.770Z,73.11
2016-11-05T08:21:18.715Z,73.02
2016-11-05T08:26:18.666Z,72.83
2016-11-05T08:31:18.607Z,73.02
2016-11-05T08:36:18.578Z,73.21
2016-11-05T08:41:18.497Z,72.34
2016-11-05T08:46:18.445Z,72.44
2016-11-05T08:51:18.391Z,72.64
2016-11-05T08:56:18.337Z,73.21
2016-11-05T09:01:18.285Z,72.34
2016-11-05T09:06:18.236Z,72.64
2016-11-05T09:11:18.184Z,72.54
2016-11-05T09:16:18.120Z,73.11
2016-11-05T09:21:18.065Z,74.65
2016-11-05T09:26:18.012Z,76.52
2016-11-05T09:31:17.954Z,76.71
2016-11-05T09:36:17.596Z,77.19
2016-11-05T09:41:17.596Z,77.29
2016-11-05T09:46:17.784Z,76.81
2016-11-05T09:51:17.736Z,76.9
2016-11-05T09:56:17.674Z,77.29
2016-11-05T10:01:17.617Z,77
2016-11-05T10:06:17.562Z,77
2016-11-05T10:11:17.513Z,77.48
2016-11-05T10:16:17.451Z,77.09
2016-11-05T10:21:17.410Z,76.96
2016-11-05T10:26:17.035Z,77.15
2016-11-05T10:31:16.981Z,77.06
2016-11-05T10:36:17.236Z,77.06
2016-11-05T10:41:17.169Z,77.34
2016-11-05T10:46:17.115Z,77.44
2016-11-05T10:51:17.061Z,77.83
2016-11-05T10:56:16.703Z,78.02
2016-11-05T11:01:16.679Z,77.53
2016-11-05T11:06:16.594Z,78.02
2016-11-05T11:11:16.539Z,77.53
2016-11-05T11:16:16.787Z,77.44
2016-11-05T11:21:16.743Z,77.58
2016-11-05T11:26:16.688Z,77.76
2016-11-05T11:31:16.628Z,77.44
2016-11-05T11:36:16.579Z,78.11
2016-11-05T11:41:16.539Z,77.83
2016-11-05T11:46:16.475Z,77.73
2016-11-05T11:51:16.425Z,77.34
2016-11-05T11:56:16.378Z,77.44
2016-11-05T12:01:16.326Z,76.96
2016-11-05T12:06:16.259Z,76.67
2016-11-05T12:11:16.207Z,76.64
2016-11-05T12:16:16.156Z,76.73
2016-11-05T12:21:15.788Z,76.34
2016-11-05T12:26:16.038Z,76.64
2016-11-05T12:31:15.979Z,76.54
2016-11-05T12:36:15.942Z,76.73
2016-11-05T12:41:15.866Z,76.44
2016-11-05T12:46:15.815Z,76.48
2016-11-05T12:51:15.752Z,76.09
2016-11-05T12:56:15.394Z,75.13
2016-11-05T13:01:15.337Z,75.52
2016-11-05T13:06:15.284Z,75.77
2016-11-05T13:11:15.224Z,76.54
2016-11-05T13:16:15.480Z,75.77
2016-11-05T13:21:15.419Z,76.25
2016-11-05T13:26:15.356Z,76.54
2016-11-05T13:31:15.303Z,76.96
2016-11-05T13:36:15.253Z,76.77
2016-11-05T13:41:14.879Z,77.25
2016-11-05T13:46:14.829Z,76.86
2016-11-05T13:51:15.077Z,76.39
2016-11-05T13:56:14.727Z,76.77
2016-11-05T14:01:14.966Z,76.39
2016-11-05T14:06:14.905Z,76.25
2016-11-05T14:11:14.852Z,76.44
2016-11-05T14:16:14.793Z,76.34
2016-11-05T14:21:14.733Z,76.64
2016-11-05T14:26:14.679Z,76.29
2016-11-05T14:31:14.621Z,76.67
2016-11-05T14:36:14.568Z,76.48
2016-11-05T14:41:14.507Z,76.67
2016-11-05T14:46:14.447Z,76.96
2016-11-05T14:51:14.389Z,76.67
2016-11-05T14:56:14.029Z,76.67
2016-11-05T15:01:13.968Z,76.77
2016-11-05T15:06:14.219Z,76.48
2016-11-05T15:11:14.169Z,76.57
2016-11-05T15:16:13.797Z,76.29
2016-11-05T15:21:13.741Z,76.57
2016-11-05T15:26:13.685Z,76.48
2016-11-05T15:31:13.954Z,76.29
2016-11-05T15:36:13.595Z,75.81
2016-11-05T15:41:13.521Z,76.39
2016-11-05T15:46:13.468Z,76.57
2016-11-05T15:51:13.404Z,76.77
2016-11-05T15:56:13.654Z,76.77
2016-11-05T16:01:13.294Z,76.57
2016-11-05T16:06:13.243Z,76.67
2016-11-05T16:11:13.182Z,76.57
2016-11-05T16:16:13.432Z,76
2016-11-05T16:21:13.380Z,76
2016-11-05T16:26:13.320Z,76.39
2016-11-05T16:31:13.272Z,76.48
2016-11-05T16:36:13.225Z,76.48
2016-11-05T16:41:12.857Z,76.09
2016-11-05T16:46:12.805Z,74.88
2016-11-05T16:51:13.085Z,74.63
2016-11-05T16:56:13.006Z,74.48
2016-11-05T17:01:12.955Z,73.96
2016-11-05T17:06:12.905Z,73.86
2016-11-05T17:11:12.847Z,73.96
2016-11-05T17:16:12.797Z,73.61
2016-11-05T17:21:12.739Z,75.34
2016-11-05T17:26:12.381Z,76.78
2016-11-05T17:31:12.633Z,76.69
2016-11-05T17:36:12.584Z,76.01
2016-11-05T17:41:12.533Z,75.44
2016-11-05T17:46:12.176Z,76.01
2016-11-05T17:51:12.430Z,76.31
2016-11-05T17:56:12.383Z,75.31
2016-11-05T18:01:12.332Z,74.96
2016-11-05T18:06:12.282Z,75.24
2016-11-05T18:11:12.228Z,74.19
2016-11-05T18:16:12.178Z,73.67
2016-11-05T18:21:11.829Z,73.96
2016-11-05T18:26:12.089Z,73.22
2016-11-05T18:31:12.035Z,74.25
2016-11-05T18:36:11.989Z,73.86
2016-11-05T18:41:11.942Z,73.57
2016-11-05T18:46:11.906Z,72.61
2016-11-05T18:51:11.541Z,72.9
2016-11-05T18:56:11.799Z,73.96
2016-11-05T19:01:11.751Z,74.86
2016-11-05T19:06:11.699Z,74.38
2016-11-05T19:11:11.652Z,74.29
2016-11-05T19:16:11.599Z,73.9
2016-11-05T19:21:11.564Z,72.55
2016-11-05T19:26:11.513Z,74.76
2016-11-05T19:31:11.158Z,74.38
2016-11-05T19:36:11.413Z,74.67
2016-11-05T19:41:11.063Z,74.67
2016-11-05T19:46:11.328Z,76.11
2016-11-05T19:51:10.962Z,75.15
2016-11-05T19:56:11.237Z,75.24
2016-11-05T20:01:10.868Z,74.86
2016-11-05T20:06:11.117Z,75.34
2016-11-05T20:11:11.072Z,75.05
2016-11-05T20:16:11.029Z,75.34
2016-11-05T20:21:10.667Z,75.34
2016-11-05T20:26:10.918Z,75.24
2016-11-05T20:31:10.866Z,75.4
2016-11-05T20:36:10.512Z,74.92
2016-11-05T20:41:10.460Z,74.15
2016-11-05T20:46:10.712Z,73.96
2016-11-05T20:51:10.661Z,73.86
2016-11-05T20:56:10.302Z,73.09
2016-11-05T21:01:10.563Z,73
2016-11-05T21:06:10.199Z,72.9
2016-11-05T21:11:10.472Z,72.42
2016-11-05T21:16:10.091Z,72.8
2016-11-05T21:21:10.350Z,72.42
2016-11-05T21:26:10.293Z,72.32
2016-11-05T21:31:10.240Z,72.42
2016-11-05T21:36:09.880Z,72.42
2016-11-05T21:41:10.133Z,71.17
2016-11-05T21:46:10.083Z,71.46
2016-11-05T21:51:10.029Z,71.36
2016-11-05T21:56:09.672Z,70.4
2016-11-05T22:01:09.621Z,70.11
2016-11-05T22:06:09.873Z,69.73
2016-11-05T22:11:09.825Z,69.63
2016-11-05T22:16:09.463Z,69.06
2016-11-05T22:21:09.715Z,69.34
2016-11-05T22:26:09.665Z,69.63
2016-11-05T22:31:09.631Z,68.76
2016-11-05T22:36:09.554Z,68.67
2016-11-05T22:41:09.518Z,69.73
2016-11-05T22:46:09.460Z,69.73
2016-11-05T22:51:09.402Z,69.63
2016-11-05T22:56:09.346Z,70.4
2016-11-05T23:01:09.295Z,70.65
2016-11-05T23:06:08.946Z,69.34
2016-11-05T23:11:08.889Z,68.96
2016-11-05T23:16:08.853Z,69.24
2016-11-05T23:21:09.090Z,69.21
2016-11-05T23:26:09.046Z,69.02
2016-11-05T23:31:08.980Z,68.92
2016-11-05T23:36:08.928Z,69.08
2016-11-05T23:41:08.884Z,69.18
2016-11-05T23:46:08.818Z,69.46
2016-11-05T23:51:08.764Z,69.37
2016-11-05T23:56:08.406Z,69.66
